Time;durP1;ratioP1;P1;durP2;ratioP2;P2;SDS_P1;SDS_P2;PMS_P1;PMS_P2;Temp;Humidity;BMP_temperature;BMP_pressure;BME280_temperature;BME280_humidity;BME280_pressure;Samples;Min_cycle;Max_cycle;Signal;HPM_P1;HPM_P2
2022/08/06 00:02:20;;;;;;;3.60;1.75;;;;;;;6.29;100.00;102521.34;5013045;28;20168;-77
2022/08/06 00:04:47;;;;;;;3.53;1.70;;;;;;;6.30;100.00;102521.25;4997363;28;20045;-77
2022/08/06 00:07:13;;;;;;;3.42;1.83;;;;;;;6.28;100.00;102520.47;5037208;28;20022;-77
2022/08/06 00:09:39;;;;;;;3.10;2.03;;;;;;;6.35;100.00;102527.13;4986269;28;20468;-77
2022/08/06 00:12:05;;;;;;;3.83;1.83;;;;;;;6.34;100.00;102533.41;5010872;28;20025;-77
2022/08/06 00:14:32;;;;;;;8.93;2.60;;;;;;;6.26;100.00;102537.56;5002138;28;20056;-77
2022/08/06 00:16:57;;;;;;;5.03;2.80;;;;;;;6.19;100.00;102522.91;4992754;28;20048;-76
2022/08/06 00:19:23;;;;;;;5.88;2.33;;;;;;;6.15;100.00;102528.47;5022861;28;20025;-77
2022/08/06 00:21:50;;;;;;;4.97;2.15;;;;;;;6.14;100.00;102525.91;5024553;28;20120;-76
2022/08/06 00:24:16;;;;;;;6.57;2.25;;;;;;;6.19;100.00;102530.94;5008920;28;20060;-76
2022/08/06 00:26:41;;;;;;;6.78;2.30;;;;;;;6.14;100.00;102518.75;5013554;28;20028;-76
2022/08/06 00:29:07;;;;;;;3.60;1.85;;;;;;;6.09;100.00;102514.69;5019388;28;20029;-76
2022/08/06 00:31:33;;;;;;;3.65;1.90;;;;;;;6.14;100.00;102512.56;5003916;28;20063;-76
2022/08/06 00:34:03;;;;;;;6.05;1.90;;;;;;;6.28;100.00;102514.28;5021708;28;20045;-76
2022/08/06 00:36:32;;;;;;;3.90;2.20;;;;;;;6.32;100.00;102510.44;5007936;28;20033;-76
2022/08/06 00:39:00;;;;;;;4.35;2.22;;;;;;;6.19;100.00;102496.19;5018454;28;20036;-76
2022/08/06 00:41:27;;;;;;;3.45;1.83;;;;;;;6.14;100.00;102505.41;4991235;28;20248;-76
2022/08/06 00:43:53;;;;;;;2.58;1.75;;;;;;;6.00;100.00;102507.28;5024079;28;20486;-76
2022/08/06 00:46:19;;;;;;;4.95;2.20;;;;;;;5.89;100.00;102498.13;5021532;28;20053;-76
2022/08/06 00:48:44;;;;;;;6.25;2.10;;;;;;;5.94;100.00;102506.72;5014628;28;20460;-76
2022/08/06 00:51:10;;;;;;;6.30;2.22;;;;;;;5.87;100.00;102499.19;5005486;28;20344;-76
2022/08/06 00:53:36;;;;;;;4.82;1.95;;;;;;;5.91;100.00;102498.91;5007998;28;20029;-76
2022/08/06 00:56:03;;;;;;;3.70;2.33;;;;;;;5.88;100.00;102496.44;5004937;28;20036;-76
2022/08/06 00:58:29;;;;;;;5.82;2.05;;;;;;;5.80;100.00;102497.91;5016770;28;20037;-76
2022/08/06 01:00:55;;;;;;;6.20;2.30;;;;;;;5.73;100.00;102495.63;5008370;28;20348;-76
2022/08/06 01:03:20;;;;;;;3.75;1.95;;;;;;;5.69;100.00;102499.47;5017935;28;20029;-76
2022/08/06 01:05:46;;;;;;;5.75;1.88;;;;;;;5.66;100.00;102499.69;5009409;28;20439;-76
2022/08/06 01:08:12;;;;;;;4.40;2.13;;;;;;;5.61;100.00;102504.47;5020288;28;20400;-76
2022/08/06 01:10:38;;;;;;;5.90;2.00;;;;;;;5.56;100.00;102501.25;5019629;28;20025;-77
2022/08/06 01:13:04;;;;;;;3.90;2.20;;;;;;;5.55;100.00;102507.53;5018039;28;20469;-76
2022/08/06 01:15:32;;;;;;;6.00;2.20;;;;;;;5.44;100.00;102496.69;5024061;28;20422;-76
2022/08/06 01:18:08;;;;;;;5.43;2.00;;;;;;;5.39;100.00;102505.00;5013994;28;20052;-76
2022/08/06 01:20:46;;;;;;;5.25;2.17;;;;;;;5.35;100.00;102481.31;5027523;28;20033;-76
2022/08/06 01:23:23;;;;;;;6.72;3.00;;;;;;;5.42;100.00;102501.28;5016711;28;20032;-76
2022/08/06 01:25:51;;;;;;;3.35;1.95;;;;;;;5.46;100.00;102506.31;5012906;28;20041;-77
2022/08/06 01:28:58;;;;;;;4.53;1.92;;;;;;;5.48;100.00;102519.56;5014906;28;20029;-76
2022/08/06 01:31:35;;;;;;;5.32;2.33;;;;;;;5.48;100.00;102503.56;5021280;28;20044;-76
2022/08/06 01:34:09;;;;;;;4.72;2.30;;;;;;;5.34;100.00;102492.91;4992513;28;20042;-76
2022/08/06 01:36:45;;;;;;;6.57;2.25;;;;;;;5.39;100.00;102501.47;5001013;28;20041;-76
2022/08/06 01:39:13;;;;;;;4.40;2.20;;;;;;;5.36;100.00;102509.69;5000829;28;20037;-76
2022/08/06 01:41:45;;;;;;;5.47;2.20;;;;;;;5.34;100.00;102495.56;5024605;28;20039;-76
2022/08/06 01:44:20;;;;;;;3.95;2.20;;;;;;;5.39;100.00;102498.81;5004963;28;20482;-76
2022/08/06 01:46:51;;;;;;;3.75;2.10;;;;;;;5.34;100.00;102493.75;4994768;28;20124;-76
2022/08/06 01:49:23;;;;;;;6.50;2.45;;;;;;;5.35;100.00;102498.16;5023861;28;20022;-76
2022/08/06 01:51:51;;;;;;;5.45;1.92;;;;;;;5.31;100.00;102495.78;5036405;28;20056;-77
2022/08/06 01:54:18;;;;;;;3.67;1.80;;;;;;;5.25;100.00;102487.22;5009830;28;20032;-77
2022/08/06 01:56:46;;;;;;;6.07;2.33;;;;;;;5.24;100.00;102493.53;5042609;28;20030;-76
2022/08/06 01:59:15;;;;;;;4.20;1.50;;;;;;;5.25;100.00;102492.56;4997743;28;20040;-76
2022/08/06 02:01:41;;;;;;;5.55;1.92;;;;;;;5.21;100.00;102495.50;5009816;28;20069;-76
2022/08/06 02:04:07;;;;;;;5.53;1.95;;;;;;;5.12;100.00;102488.09;5019704;28;20506;-76
2022/08/06 02:06:35;;;;;;;5.13;2.03;;;;;;;5.07;100.00;102504.38;5009632;28;20029;-76
2022/08/06 02:09:04;;;;;;;4.35;2.17;;;;;;;5.05;100.00;102492.97;5023836;28;20032;-76
2022/08/06 02:11:32;;;;;;;5.75;1.75;;;;;;;5.07;100.00;102493.72;5017270;28;20022;-76
2022/08/06 02:14:01;;;;;;;5.97;2.05;;;;;;;5.08;100.00;102500.78;5011394;28;20075;-76
2022/08/06 02:16:34;;;;;;;4.53;2.30;;;;;;;5.03;100.00;102489.56;5009823;28;20412;-76
2022/08/06 02:19:01;;;;;;;3.20;1.48;;;;;;;4.96;100.00;102486.41;4993639;28;20458;-76
2022/08/06 02:21:27;;;;;;;4.82;1.73;;;;;;;4.98;100.00;102494.31;5005012;28;20475;-75
2022/08/06 02:23:54;;;;;;;4.38;2.35;;;;;;;4.97;100.00;102497.94;5015298;28;20028;-76
2022/08/06 02:26:23;;;;;;;5.32;2.00;;;;;;;5.00;100.00;102492.41;5005944;28;20120;-76
2022/08/06 02:28:49;;;;;;;5.93;2.20;;;;;;;4.95;100.00;102479.38;4990638;28;20526;-75
2022/08/06 02:31:15;;;;;;;7.30;2.10;;;;;;;4.96;100.00;102485.56;4990860;28;20062;-76
2022/08/06 02:33:40;;;;;;;7.90;2.53;;;;;;;5.02;100.00;102488.69;5006493;28;20107;-76
2022/08/06 02:36:19;;;;;;;5.80;1.92;;;;;;;4.92;100.00;102478.69;4990935;28;20616;-76
2022/08/06 02:39:08;;;;;;;9.70;2.40;;;;;;;5.05;100.00;102495.63;5037786;28;20033;-76
2022/08/06 02:41:43;;;;;;;3.83;1.98;;;;;;;4.93;100.00;102480.44;5006667;28;20037;-76
2022/08/06 02:44:20;;;;;;;5.82;2.22;;;;;;;5.11;100.00;102500.59;4994369;28;20032;-76
2022/08/06 02:47:02;;;;;;;3.50;2.15;;;;;;;5.13;100.00;102493.31;5001559;28;20041;-76
2022/08/06 02:49:31;;;;;;;5.97;2.22;;;;;;;5.14;100.00;102495.06;5023692;28;20762;-76
2022/08/06 02:52:00;;;;;;;3.17;1.90;;;;;;;5.10;100.00;102496.19;5040958;28;20054;-76
2022/08/06 02:54:39;;;;;;;7.10;2.35;;;;;;;5.08;100.00;102500.78;5020357;28;20029;-75
2022/08/06 02:57:06;;;;;;;9.02;2.05;;;;;;;5.06;100.00;102502.69;4988641;28;20048;-76
2022/08/06 02:59:35;;;;;;;3.92;2.10;;;;;;;4.99;100.00;102488.03;5018952;28;20036;-76
2022/08/06 03:02:02;;;;;;;6.03;2.05;;;;;;;5.08;100.00;102503.47;4989479;28;20036;-77
2022/08/06 03:04:29;;;;;;;5.78;1.83;;;;;;;5.03;100.00;102503.75;5023940;28;20025;-75
2022/08/06 03:06:56;;;;;;;4.90;1.90;;;;;;;4.87;100.00;102496.78;4988188;28;20057;-75
2022/08/06 03:09:25;;;;;;;3.08;1.73;;;;;;;4.81;100.00;102490.88;5021645;28;20040;-76
2022/08/06 03:11:52;;;;;;;4.00;1.70;;;;;;;4.93;100.00;102515.09;5007304;28;20030;-76
2022/08/06 03:14:20;;;;;;;6.38;1.70;;;;;;;4.90;100.00;102509.94;5008409;28;20038;-75
2022/08/06 03:16:46;;;;;;;5.47;1.85;;;;;;;4.76;100.00;102493.00;5020163;28;20116;-75
2022/08/06 03:19:13;;;;;;;3.03;1.67;;;;;;;4.87;100.00;102502.13;5025629;28;20467;-75
2022/08/06 03:21:39;;;;;;;5.13;1.65;;;;;;;4.85;100.00;102500.41;4988913;28;20128;-75
2022/08/06 03:24:06;;;;;;;4.57;1.88;;;;;;;4.88;100.00;102502.03;5027068;28;20018;-76
2022/08/06 03:26:33;;;;;;;4.30;1.98;;;;;;;4.92;100.00;102495.56;5000490;28;20037;-75
2022/08/06 03:29:00;;;;;;;4.15;2.10;;;;;;;4.94;100.00;102503.44;5016461;28;20044;-76
2022/08/06 03:31:27;;;;;;;5.22;2.20;;;;;;;4.90;100.00;102496.63;5029937;28;20025;-75
2022/08/06 03:33:53;;;;;;;4.50;1.90;;;;;;;4.92;100.00;102492.91;4997931;28;20068;-76
2022/08/06 03:36:20;;;;;;;5.03;2.15;;;;;;;4.95;100.00;102495.38;4977188;28;20048;-75
2022/08/06 03:38:51;;;;;;;3.17;1.55;;;;;;;4.97;100.00;102489.94;5042479;28;20113;-76
2022/08/06 03:41:16;;;;;;;3.40;1.90;;;;;;;4.83;100.00;102465.00;5005427;28;20124;-76
2022/08/06 03:43:42;;;;;;;5.45;1.80;;;;;;;4.86;100.00;102469.28;5007106;28;20112;-75
2022/08/06 03:46:09;;;;;;;3.75;1.70;;;;;;;4.94;100.00;102482.13;5015596;28;20467;-75
2022/08/06 03:48:38;;;;;;;4.70;2.05;;;;;;;5.04;100.00;102485.94;5005048;28;20212;-75
2022/08/06 03:51:10;;;;;;;3.72;2.10;;;;;;;5.11;100.00;102484.59;4998828;28;20029;-76
2022/08/06 03:53:36;;;;;;;5.13;1.88;;;;;;;5.07;100.00;102461.72;5006896;28;20037;-76
2022/08/06 03:56:04;;;;;;;3.67;1.90;;;;;;;5.31;100.00;102485.13;4999767;28;21824;-76
2022/08/06 03:58:33;;;;;;;3.72;2.00;;;;;;;5.36;100.00;102491.00;5001186;28;20418;-75
2022/08/06 04:01:06;;;;;;;7.35;3.20;;;;;;;5.45;100.00;102491.28;4990024;28;20030;-76
2022/08/06 04:03:32;;;;;;;4.47;2.25;;;;;;;5.48;100.00;102484.88;4999196;28;20057;-75
2022/08/06 04:05:58;;;;;;;3.50;1.83;;;;;;;5.48;100.00;102479.56;4995912;28;20557;-75
2022/08/06 04:08:34;;;;;;;4.72;1.75;;;;;;;5.55;100.00;102488.00;4980302;28;20040;-76
2022/08/06 04:11:00;;;;;;;5.03;1.70;;;;;;;5.56;100.00;102490.56;5006178;28;20127;-76
2022/08/06 04:13:27;;;;;;;5.53;1.77;;;;;;;5.28;100.00;102446.16;5013632;28;20487;-75
2022/08/06 04:15:54;;;;;;;3.88;1.80;;;;;;;5.53;100.00;102496.13;5009377;28;20071;-76
2022/08/06 04:18:34;;;;;;;5.82;2.10;;;;;;;5.50;100.00;102494.50;5012074;28;20072;-77
2022/08/06 04:21:06;;;;;;;5.93;1.95;;;;;;;5.53;100.00;102487.22;4984123;28;20067;-76
2022/08/06 04:23:32;;;;;;;5.28;2.15;;;;;;;5.50;100.00;102496.28;5005724;28;20025;-76
2022/08/06 04:26:01;;;;;;;5.90;2.10;;;;;;;5.29;100.00;102462.06;4988516;28;20730;-75
2022/08/06 04:28:29;;;;;;;7.47;2.67;;;;;;;5.50;100.00;102493.63;5008688;28;20451;-76
2022/08/06 04:30:55;;;;;;;6.82;2.20;;;;;;;5.46;100.00;102490.31;5008501;28;20063;-76
2022/08/06 04:33:23;;;;;;;9.52;2.30;;;;;;;5.40;100.00;102485.38;5006388;28;20034;-76
2022/08/06 04:35:49;;;;;;;4.97;2.03;;;;;;;5.46;100.00;102482.31;4988178;28;20048;-77
2022/08/06 04:38:16;;;;;;;4.85;1.95;;;;;;;5.43;100.00;102487.00;5006205;28;20371;-77
2022/08/06 04:40:42;;;;;;;5.93;1.92;;;;;;;5.38;100.00;102475.78;4991607;28;20049;-77
2022/08/06 04:43:09;;;;;;;10.13;2.10;;;;;;;5.35;100.00;102459.97;5043871;28;20052;-77
2022/08/06 04:45:40;;;;;;;8.63;2.30;;;;;;;5.51;100.00;102476.69;5008357;28;20026;-76
2022/08/06 04:48:08;;;;;;;6.55;2.42;;;;;;;5.55;100.00;102482.66;5005374;28;20133;-76
2022/08/06 04:50:35;;;;;;;4.25;2.72;;;;;;;5.53;100.00;102474.78;5024708;28;20029;-76
2022/08/06 04:53:17;;;;;;;5.05;2.17;;;;;;;5.59;100.00;102487.69;4983334;28;20033;-76
2022/08/06 04:55:45;;;;;;;6.83;2.40;;;;;;;5.57;100.00;102486.09;4996424;28;20040;-76
2022/08/06 04:58:12;;;;;;;4.90;2.00;;;;;;;5.48;100.00;102488.41;4987807;28;20034;-77
2022/08/06 05:00:44;;;;;;;5.28;2.30;;;;;;;5.37;100.00;102488.25;4996216;28;20037;-77
2022/08/06 05:03:09;;;;;;;7.72;3.70;;;;;;;5.35;100.00;102492.81;5006836;28;20307;-76
2022/08/06 05:05:39;;;;;;;6.60;2.83;;;;;;;5.32;100.00;102497.47;4981550;28;20120;-76
2022/08/06 05:08:06;;;;;;;6.38;2.65;;;;;;;5.37;100.00;102492.72;5011120;28;20024;-76
2022/08/06 05:10:39;;;;;;;4.45;2.05;;;;;;;5.47;100.00;102504.50;5013272;28;20769;-76
2022/08/06 05:13:05;;;;;;;6.30;2.55;;;;;;;5.62;100.00;102495.50;4983502;28;20175;-76
2022/08/06 05:15:40;;;;;;;5.50;2.13;;;;;;;5.79;100.00;102490.84;5010540;28;20128;-76
2022/08/06 05:18:13;;;;;;;5.13;2.40;;;;;;;5.95;100.00;102486.22;5001485;28;20084;-76
2022/08/06 05:20:40;;;;;;;7.50;2.40;;;;;;;6.13;100.00;102498.34;5015455;28;20026;-76
2022/08/06 05:23:12;;;;;;;3.90;2.10;;;;;;;6.23;100.00;102487.03;5002666;28;20734;-77
2022/08/06 05:25:39;;;;;;;7.85;2.50;;;;;;;6.50;100.00;102501.16;4973546;28;20034;-77
2022/08/06 05:28:05;;;;;;;7.70;2.55;;;;;;;6.67;100.00;102504.47;5007437;28;20053;-76
2022/08/06 05:30:31;;;;;;;6.00;1.95;;;;;;;6.81;100.00;102497.19;5000694;28;20042;-76
2022/08/06 05:32:58;;;;;;;6.78;2.38;;;;;;;6.94;100.00;102496.31;4996693;28;20048;-76
2022/08/06 05:35:24;;;;;;;9.43;2.63;;;;;;;6.82;100.00;102452.59;5007562;28;20044;-76
2022/08/06 05:37:50;;;;;;;7.32;2.70;;;;;;;7.23;100.00;102494.22;4991688;28;20095;-77
2022/08/06 05:40:16;;;;;;;6.82;2.53;;;;;;;7.39;100.00;102500.16;4972281;28;20038;-76
2022/08/06 05:42:41;;;;;;;6.50;3.03;;;;;;;7.49;100.00;102498.53;5007452;28;20304;-76
2022/08/06 05:45:10;;;;;;;8.50;2.70;;;;;;;7.60;100.00;102488.84;5000018;28;20100;-77
2022/08/06 05:47:38;;;;;;;7.90;3.10;;;;;;;7.67;100.00;102490.06;4977030;28;20029;-76
2022/08/06 05:50:09;;;;;;;8.32;2.92;;;;;;;7.59;100.00;102465.72;4989424;28;20042;-77
2022/08/06 05:52:47;;;;;;;12.88;3.53;;;;;;;7.79;100.00;102501.72;4968703;28;20124;-75
2022/08/06 05:55:20;;;;;;;10.25;3.20;;;;;;;7.78;100.00;102500.88;4984249;28;20605;-76
2022/08/06 05:57:58;;;;;;;10.73;2.47;;;;;;;7.75;100.00;102498.41;4992125;28;20022;-76
2022/08/06 06:00:26;;;;;;;7.53;2.92;;;;;;;7.80;100.00;102501.59;5021505;28;20014;-77
2022/08/06 06:02:54;;;;;;;10.68;2.55;;;;;;;7.98;100.00;102514.56;4993916;28;20041;-77
2022/08/06 06:05:21;;;;;;;10.88;3.10;;;;;;;8.14;100.00;102507.91;5016479;28;20025;-76
2022/08/06 06:07:47;;;;;;;12.07;3.63;;;;;;;8.37;100.00;102510.69;5014913;28;20057;-77
2022/08/06 06:10:14;;;;;;;6.50;2.65;;;;;;;8.55;100.00;102517.31;4998193;28;20129;-77
2022/08/06 06:12:40;;;;;;;6.22;2.67;;;;;;;8.65;100.00;102511.22;5010029;28;20065;-77
2022/08/06 06:15:07;;;;;;;8.48;2.83;;;;;;;8.81;100.00;102509.03;5022714;28;20071;-76
2022/08/06 06:17:41;;;;;;;9.40;3.00;;;;;;;9.02;100.00;102517.22;4995661;28;20045;-77
2022/08/06 06:20:20;;;;;;;8.40;2.75;;;;;;;9.14;100.00;102500.13;5004811;28;20041;-77
2022/08/06 06:23:04;;;;;;;7.93;3.22;;;;;;;9.50;100.00;102513.38;5026980;28;20065;-77
2022/08/06 06:25:36;;;;;;;8.00;3.45;;;;;;;9.93;100.00;102520.59;5004765;28;20044;-78
2022/08/06 06:28:31;;;;;;;5.82;2.85;;;;;;;10.41;100.00;102526.34;4991694;28;20033;-77
2022/08/06 06:31:05;;;;;;;10.18;2.70;;;;;;;10.52;100.00;102526.25;4985079;28;21089;-77
2022/08/06 06:33:39;;;;;;;7.95;3.10;;;;;;;10.54;100.00;102520.75;4980706;28;20804;-77
2022/08/06 06:36:20;;;;;;;5.97;2.55;;;;;;;10.43;100.00;102513.63;4985588;28;20116;-78
2022/08/06 06:38:46;;;;;;;8.23;3.10;;;;;;;10.53;100.00;102528.00;5001677;28;20041;-76
2022/08/06 06:41:44;;;;;;;8.18;2.58;;;;;;;10.88;100.00;102534.00;5015060;28;20036;-77
2022/08/06 06:44:22;;;;;;;7.65;2.83;;;;;;;11.34;100.00;102513.75;4996634;28;20041;-77
2022/08/06 06:46:59;;;;;;;5.68;2.63;;;;;;;11.96;100.00;102522.50;5012826;28;20022;-77
2022/08/06 06:49:47;;;;;;;4.68;2.17;;;;;;;12.30;100.00;102528.28;5009803;28;20018;-77
2022/08/06 06:52:23;;;;;;;7.50;2.90;;;;;;;12.57;100.00;102534.78;5014931;28;20499;-76
2022/08/06 06:54:56;;;;;;;4.85;2.42;;;;;;;12.91;100.00;102519.78;4998765;28;20092;-76
2022/08/06 06:57:36;;;;;;;6.22;2.42;;;;;;;13.10;100.00;102524.25;4986841;28;20379;-77
2022/08/06 07:03:35;;;;;;;3.80;1.90;;;;;;;12.80;100.00;102474.06;5005206;28;20189;-76
2022/08/06 07:06:27;;;;;;;4.65;2.00;;;;;;;12.59;100.00;102497.72;5005194;28;20072;-76
2022/08/06 07:09:01;;;;;;;3.20;1.95;;;;;;;12.73;100.00;102541.28;5000298;28;20462;-76
2022/08/06 07:11:27;;;;;;;5.88;2.00;;;;;;;12.64;100.00;102538.59;5001236;28;20128;-77
2022/08/06 07:17:12;;;;;;;4.63;1.92;;;;;;;13.31;100.00;102540.25;5011483;28;20475;-76
2022/08/06 07:20:47;;;;;;;;;;;;;;;;;;;;;
2022/08/06 07:23:16;;;;;;;7.07;2.17;;;;;;;13.85;100.00;102518.69;5020366;28;20055;-76
2022/08/06 07:26:01;;;;;;;6.43;2.35;;;;;;;13.73;100.00;102492.88;4992102;28;20040;-76
2022/08/06 07:29:27;;;;;;;7.05;2.33;;;;;;;14.19;100.00;102548.56;5015387;28;20119;-77
2022/08/06 07:32:08;;;;;;;4.85;2.42;;;;;;;14.01;100.00;102516.13;5016514;28;20391;-76
2022/08/06 07:35:12;;;;;;;8.35;2.40;;;;;;;14.12;100.00;102531.25;5003233;28;20029;-76
2022/08/06 07:38:20;;;;;;;7.13;1.95;;;;;;;13.80;100.00;102481.28;4983643;28;20030;-75
2022/08/06 07:41:10;;;;;;;5.93;2.35;;;;;;;14.34;100.00;102546.13;5002576;28;20464;-74
2022/08/06 07:44:05;;;;;;;4.80;2.22;;;;;;;14.62;100.00;102548.75;5006511;28;20918;-75
2022/08/06 07:49:59;;;;;;;7.90;2.13;;;;;;;14.89;100.00;102543.16;4995939;28;20067;-75
2022/08/06 07:52:32;;;;;;;3.10;1.90;;;;;;;15.02;100.00;102534.59;5031620;28;20429;-75
2022/08/06 07:55:02;;;;;;;6.60;2.47;;;;;;;15.25;100.00;102540.31;5018080;28;20021;-75
2022/08/06 07:57:34;;;;;;;3.90;2.10;;;;;;;15.39;99.72;102542.38;4994993;28;20120;-75
2022/08/06 08:00:05;;;;;;;6.30;2.28;;;;;;;15.60;100.00;102522.97;4998171;28;20037;-75
2022/08/06 08:02:31;;;;;;;5.90;2.40;;;;;;;16.16;96.58;102555.78;5030273;28;20449;-76
2022/08/06 08:07:54;;;;;;;4.88;2.00;;;;;;;16.93;90.89;102541.81;5008031;28;20087;-75
2022/08/06 08:10:20;;;;;;;2.78;1.75;;;;;;;16.91;88.58;102547.44;5007849;28;20111;-76
2022/08/06 08:12:47;;;;;;;3.67;2.25;;;;;;;16.97;91.09;102559.47;5025881;28;20112;-75
2022/08/06 08:15:12;;;;;;;7.00;2.00;;;;;;;16.94;90.77;102558.97;5005439;28;20045;-75
2022/08/06 08:17:38;;;;;;;4.65;1.90;;;;;;;16.60;90.18;102555.44;5024199;28;20050;-75
2022/08/06 08:20:08;;;;;;;5.05;1.92;;;;;;;16.41;93.05;102553.09;5027447;28;20551;-75
2022/08/06 08:22:34;;;;;;;5.05;2.08;;;;;;;16.46;92.69;102557.00;4981829;28;20087;-75
2022/08/06 08:25:00;;;;;;;5.70;3.05;;;;;;;16.57;92.06;102557.66;5009955;28;20037;-75
2022/08/06 08:27:26;;;;;;;7.75;2.38;;;;;;;16.67;91.58;102558.31;5013376;28;20080;-75
2022/08/06 08:29:52;;;;;;;5.82;3.13;;;;;;;16.76;91.88;102557.28;5015586;28;20053;-75
2022/08/06 08:32:18;;;;;;;5.78;2.30;;;;;;;17.04;90.06;102559.59;4999120;28;20132;-76
2022/08/06 08:34:44;;;;;;;4.85;2.10;;;;;;;17.21;89.43;102565.84;5023641;28;20059;-75
2022/08/06 08:37:09;;;;;;;5.78;2.17;;;;;;;17.62;90.09;102563.78;5009792;28;20037;-76
2022/08/06 08:39:35;;;;;;;5.57;2.47;;;;;;;17.85;87.61;102566.56;5024860;28;20033;-75
2022/08/06 08:42:32;;;;;;;5.78;2.40;;;;;;;17.74;87.16;102528.84;5021087;28;20022;-75
2022/08/06 08:44:59;;;;;;;8.50;2.42;;;;;;;17.97;86.83;102562.41;4988539;28;20112;-76
2022/08/06 08:47:24;;;;;;;4.93;2.60;;;;;;;17.81;85.81;102551.63;5016273;28;20266;-76
2022/08/06 08:49:55;;;;;;;7.30;2.50;;;;;;;17.95;84.56;102556.28;5007021;28;20479;-76
2022/08/06 08:52:28;;;;;;;7.05;2.38;;;;;;;18.92;80.78;102562.94;5019283;28;20670;-75
2022/08/06 08:54:57;;;;;;;6.50;2.50;;;;;;;19.40;78.94;102566.97;4989330;28;20053;-75
2022/08/06 08:57:26;;;;;;;6.00;2.50;;;;;;;19.81;78.64;102573.78;5021064;28;20041;-75
2022/08/06 08:59:52;;;;;;;5.63;2.80;;;;;;;20.13;75.64;102567.81;5005984;28;20030;-75
2022/08/06 09:02:18;;;;;;;3.28;1.90;;;;;;;20.16;73.61;102572.03;5009780;28;20456;-75
2022/08/06 09:04:44;;;;;;;5.88;2.38;;;;;;;20.12;73.79;102573.47;5013368;28;20033;-76
2022/08/06 09:07:10;;;;;;;5.13;2.60;;;;;;;20.36;72.13;102573.06;4994971;28;20045;-75
2022/08/06 09:09:38;;;;;;;4.68;2.80;;;;;;;20.84;70.70;102566.94;5001335;28;20034;-75
2022/08/06 09:12:04;;;;;;;6.25;2.35;;;;;;;21.59;66.78;102559.75;5005073;28;20388;-75
2022/08/06 09:14:30;;;;;;;11.10;3.70;;;;;;;21.93;64.95;102568.91;5022816;28;20029;-75
2022/08/06 09:16:58;;;;;;;6.03;2.20;;;;;;;22.07;62.12;102561.56;5004578;28;20533;-78
2022/08/06 09:19:25;;;;;;;7.78;2.63;;;;;;;23.22;58.25;102570.38;5018133;28;20030;-79
2022/08/06 09:21:51;;;;;;;5.15;2.38;;;;;;;22.89;56.29;102567.69;5012601;28;20045;-79
2022/08/06 09:24:17;;;;;;;5.80;2.60;;;;;;;22.41;57.65;102557.81;5005638;28;20479;-79
2022/08/06 09:27:08;;;;;;;6.70;2.30;;;;;;;24.68;50.80;102569.47;5006649;28;20033;-80
2022/08/06 09:29:35;;;;;;;8.43;3.10;;;;;;;25.72;47.99;102571.47;5028033;28;20383;-79
2022/08/06 09:32:04;;;;;;;7.78;2.92;;;;;;;26.43;45.66;102569.75;5011844;28;20398;-79
2022/08/06 09:34:35;;;;;;;7.35;2.50;;;;;;;26.78;44.58;102577.22;5017442;28;20033;-79
2022/08/06 09:37:02;;;;;;;10.15;3.38;;;;;;;25.77;46.38;102563.34;4992313;28;20030;-79
2022/08/06 09:39:31;;;;;;;6.80;2.80;;;;;;;26.16;45.42;102575.72;4999497;28;20034;-79
2022/08/06 09:41:57;;;;;;;8.20;2.70;;;;;;;25.66;47.00;102564.97;5014093;28;20041;-80
2022/08/06 09:44:23;;;;;;;7.40;2.55;;;;;;;24.59;48.54;102575.50;5011184;28;20037;-79
2022/08/06 09:46:52;;;;;;;11.25;3.78;;;;;;;23.19;52.17;102562.59;5032536;28;20028;-79
2022/08/06 09:49:19;;;;;;;9.52;3.20;;;;;;;22.06;56.71;102565.34;5014608;28;20037;-79
2022/08/06 09:51:45;;;;;;;9.32;3.30;;;;;;;21.85;57.60;102569.94;5010603;28;20041;-79
2022/08/06 09:54:15;;;;;;;8.88;3.38;;;;;;;24.29;51.68;102565.13;4997523;28;20041;-79
2022/08/06 09:56:45;;;;;;;9.80;3.30;;;;;;;24.11;50.59;102569.50;5027100;28;20037;-79
2022/08/06 09:59:12;;;;;;;7.05;3.17;;;;;;;23.39;53.24;102565.22;4990209;28;20153;-79
2022/08/06 10:01:45;;;;;;;9.32;3.40;;;;;;;22.82;54.19;102567.72;4988929;28;20406;-79
2022/08/06 10:04:25;;;;;;;6.18;3.20;;;;;;;21.73;58.35;102558.78;5014934;28;20047;-78
2022/08/06 10:06:59;;;;;;;9.18;3.50;;;;;;;21.13;60.60;102560.38;5005830;28;20034;-79
2022/08/06 10:09:26;;;;;;;11.85;3.42;;;;;;;20.90;61.84;102571.59;4998032;28;20034;-79
2022/08/06 10:11:55;;;;;;;8.13;3.10;;;;;;;20.76;63.09;102558.91;4988635;28;20030;-78
2022/08/06 10:14:31;;;;;;;10.63;3.88;;;;;;;20.90;63.01;102566.13;5027947;28;20128;-80
2022/08/06 10:17:06;;;;;;;7.72;3.53;;;;;;;20.71;60.88;102542.25;4998387;28;20425;-79
2022/08/06 10:19:32;;;;;;;9.15;3.45;;;;;;;20.74;62.11;102563.72;5014677;28;20076;-79
2022/08/06 10:22:09;;;;;;;11.02;4.20;;;;;;;20.43;62.65;102545.81;5006812;28;20038;-79
2022/08/06 10:24:43;;;;;;;13.95;5.20;;;;;;;20.29;63.94;102563.13;5011899;28;20026;-78
2022/08/06 10:27:19;;;;;;;18.80;14.93;;;;;;;20.30;64.33;102560.19;5030027;28;20036;-79
2022/08/06 10:29:50;;;;;;;7.47;4.50;;;;;;;20.25;63.81;102553.66;5025044;28;20029;-79
2022/08/06 10:32:38;;;;;;;12.77;5.20;;;;;;;20.13;64.28;102562.34;5008736;28;20482;-80
2022/08/06 10:35:05;;;;;;;10.13;3.78;;;;;;;19.91;65.39;102566.13;5015615;28;20054;-79
2022/08/06 10:37:37;;;;;;;8.13;3.85;;;;;;;19.58;66.33;102550.16;4996195;28;20483;-78
2022/08/06 10:40:03;;;;;;;7.32;3.13;;;;;;;19.32;68.05;102545.25;4989912;28;20034;-78
2022/08/06 10:42:29;;;;;;;7.68;3.40;;;;;;;19.05;68.61;102544.03;5027129;28;20033;-79
2022/08/06 10:44:56;;;;;;;7.78;4.38;;;;;;;19.07;68.42;102542.81;5023452;28;20032;-75
2022/08/06 10:47:25;;;;;;;9.40;3.90;;;;;;;19.44;68.00;102556.53;5017735;28;20514;-76
2022/08/06 10:49:52;;;;;;;10.73;3.85;;;;;;;20.09;65.58;102569.25;5026590;28;20069;-76
2022/08/06 10:52:18;;;;;;;12.15;4.53;;;;;;;20.57;62.56;102561.28;5001524;28;20038;-76
2022/08/06 10:54:43;;;;;;;8.13;3.60;;;;;;;20.94;58.78;102566.59;4991395;28;20041;-76
2022/08/06 10:57:12;;;;;;;7.53;3.25;;;;;;;20.48;57.46;102501.47;5008736;28;20073;-77
2022/08/06 10:59:41;;;;;;;9.52;3.75;;;;;;;20.53;57.58;102562.69;5008983;28;20460;-76
2022/08/06 11:02:21;;;;;;;5.80;3.13;;;;;;;20.22;58.37;102546.69;5016129;28;20423;-77
2022/08/06 11:05:02;;;;;;;8.98;3.78;;;;;;;20.47;59.52;102557.19;5003037;28;20040;-76
2022/08/06 11:07:50;;;;;;;9.85;3.75;;;;;;;21.22;57.93;102561.91;5022410;28;20064;-77
2022/08/06 11:10:34;;;;;;;9.48;3.53;;;;;;;22.12;55.29;102554.44;5022402;28;20033;-77
2022/08/06 11:13:21;;;;;;;9.02;3.55;;;;;;;23.33;50.37;102552.38;5021832;28;20038;-77
2022/08/06 11:15:47;;;;;;;16.75;5.55;;;;;;;24.27;48.05;102562.63;5009205;28;20679;-77
2022/08/06 11:18:13;;;;;;;8.20;3.13;;;;;;;24.21;47.47;102540.69;4998773;28;20040;-77
2022/08/06 11:20:47;;;;;;;9.88;3.20;;;;;;;24.18;47.58;102554.88;5017702;28;20550;-76
2022/08/06 11:23:13;;;;;;;6.72;2.97;;;;;;;23.77;48.57;102557.06;4995345;28;20044;-77
2022/08/06 11:25:52;;;;;;;9.13;2.95;;;;;;;23.01;50.08;102560.53;5024099;28;20052;-76
2022/08/06 11:28:59;;;;;;;7.43;2.70;;;;;;;22.39;52.03;102555.31;5024983;28;20076;-76
2022/08/06 11:31:35;;;;;;;7.43;2.85;;;;;;;21.97;53.07;102553.78;5008608;28;20034;-75
2022/08/06 11:34:04;;;;;;;4.30;2.90;;;;;;;21.71;53.74;102549.06;5004196;28;20104;-76
2022/08/06 11:36:46;;;;;;;6.25;2.78;;;;;;;21.74;54.00;102548.66;5027701;28;20569;-77
2022/08/06 11:39:11;;;;;;;9.93;3.25;;;;;;;22.26;53.33;102544.34;5010630;28;20033;-77
2022/08/06 11:41:52;;;;;;;10.43;3.30;;;;;;;22.80;51.69;102550.63;4989622;28;20037;-78
2022/08/06 11:44:20;;;;;;;6.68;3.53;;;;;;;22.98;50.96;102544.50;5027706;28;20088;-77
2022/08/06 11:46:47;;;;;;;7.43;2.90;;;;;;;22.70;50.85;102539.25;4993320;28;20057;-77
2022/08/06 11:49:14;;;;;;;6.05;2.80;;;;;;;22.15;52.60;102536.72;5015994;28;20033;-76
2022/08/06 11:51:50;;;;;;;11.95;3.17;;;;;;;21.68;54.55;102530.31;4982656;28;20898;-78
2022/08/06 11:54:16;;;;;;;6.57;2.67;;;;;;;21.32;56.02;102528.69;4999421;28;20036;-76
2022/08/06 11:57:01;;;;;;;7.85;3.78;;;;;;;20.99;57.44;102534.88;5005269;28;20491;-77